Chula Vista, CA (91912)

5:13 PM PST on February 05, 2016 (GMT -0800)
Chula Vista | | Change Station
CLOSE
Current Station
Personal Weather Station
Location: Chula Vista, CA
Elevation: 50 ft
Nearby Weather Stations
Active Advisory: Beach Hazard Statement

Elev 50 ft 32.65 °N, 117.07 °W | Updated 3 minutes ago

Clear
Clear
67.6 °F
Feels Like 67.6 °F
N
0.0
Wind Variable Wind from WSW
Gusts 4.0 mph

Today
High -- | Low -- °F
--% Chance of Precip.
Yesterday
High -- | Low -- °F
Precip. -- in
Pressure 30.24 in
Visibility 10.0 miles
Clouds Clear
Dew Point 46 °F
Humidity 46%
Rainfall 0.00 in
Snow Depth Not available.
6:40 AM 5:24 PM
Waning Crescent, 8% visible
METAR KNRS 060056Z 27004KT 10SM CLR 18/10 A3024 RMK AO2 SLP238 T01830100 $
Pressure 30.24 in
Visibility 10.0 miles
Clouds Clear
Dew Point 46 °F
Humidity 46%
Rainfall 0.00 in
Snow Depth Not available.
6:40 AM 5:24 PM
Waning Crescent, 8% visible
METAR KNRS 060056Z 27004KT 10SM CLR 18/10 A3024 RMK AO2 SLP238 T01830100 $

10-Day Weather Forecast

Almanac

Astronomy

Feb. 05, 2016 Rise Set
Actual Time
Civil Twilight
Nautical Twilight
Astronomical Twilight
Moon
Length of Visible Light
Length of Day
Tomorrow will be .
, % of the Moon is Illuminated

Today's Extremes

State Highs State Lows

Community

WunderPhotos

Upload Photos

1,890,904 photos uploaded!

WunderBlog® & News

Nearby

Air Quality

  Air Quality AQ Index Pollutant
Not available.

Snow Depth

Station Depth Elevation

Earthquake Activity

City Distance Mag. Time & Date
Minimum magnitude displayed is 2.5.

Coastal Water Temperatures

Place Temperature

Stations

Nearby Weather Stations

Station Location Temp. Windchill Dew Point Humidity Wind Precip. Elev Updated Type
                   

Watches & Warnings

Beach Hazard Statement
Issued: 1:26 PM PST Feb. 5, 2016 – National Weather Service

... Beach hazards statement remains in effect until 10 PM PST this
evening...

* swell... 8 to 9 feet at 18 seconds from the northwest around
290 degrees.

* Surf... 3 to 6 feet with local sets to 7 feet. Highest surf
north of Newport Beach and south of del Mar.

* Timing... through this evening.

* Impacts... high surf and strong rip currents will create
dangerous swimming conditions. Minor beach erosion is also
possible. Larger waves may over-top jetties or sea walls at
times.

Precautionary/preparedness actions...

A beach hazards statement is issued when threats such as strong
rip currents... elevated surf heights... minor tidal overflow... or
lightning are possible at local beaches. Obey posted warning
signs and flags and talk to a lifeguard before swimming. Use
caution when in or near the water and always swim near a
lifeguard.



Ts
http://www.Weather.Gov/sandiego